createdAt,value
2018-09-13T00:00:28.948Z,1010.71
2018-09-13T00:01:28.919Z,1010.68
2018-09-13T00:02:28.854Z,1010.70
2018-09-13T00:03:28.794Z,1010.68
2018-09-13T00:04:28.746Z,1010.69
2018-09-13T00:05:28.703Z,1010.63
2018-09-13T00:06:28.668Z,1010.63
2018-09-13T00:07:28.603Z,1010.63
2018-09-13T00:08:28.548Z,1010.59
2018-09-13T00:09:28.500Z,1010.55
2018-09-13T00:10:28.450Z,1010.55
2018-09-13T00:11:28.423Z,1010.54
2018-09-13T00:12:28.350Z,1010.54
2018-09-13T00:13:28.305Z,1010.58
2018-09-13T00:14:28.253Z,1010.56
2018-09-13T00:15:28.203Z,1010.56
2018-09-13T00:16:28.176Z,1010.57
2018-09-13T00:17:28.105Z,1010.59
2018-09-13T00:18:28.057Z,1010.53
2018-09-13T00:19:28.007Z,1010.58
2018-09-13T00:20:27.959Z,1010.57
2018-09-13T00:21:27.943Z,1010.58
2018-09-13T00:22:27.858Z,1010.54
2018-09-13T00:23:27.806Z,1010.56
2018-09-13T00:24:27.765Z,1010.58
2018-09-13T00:25:27.711Z,1010.53
2018-09-13T00:26:27.690Z,1010.56
2018-09-13T00:27:27.607Z,1010.57
2018-09-13T00:28:27.556Z,1010.57
2018-09-13T00:29:27.508Z,1010.58
2018-09-13T00:30:27.459Z,1010.56
2018-09-13T00:31:27.433Z,1010.61
2018-09-13T00:32:27.361Z,1010.62
2018-09-13T00:33:27.318Z,1010.65
2018-09-13T00:34:27.276Z,1010.63
2018-09-13T00:35:27.213Z,1010.65
2018-09-13T00:36:27.183Z,1010.65
2018-09-13T00:37:27.110Z,1010.63
2018-09-13T00:38:27.062Z,1010.58
2018-09-13T00:39:27.012Z,1010.62
2018-09-13T00:40:26.962Z,1010.63
2018-09-13T00:41:26.949Z,1010.61
2018-09-13T00:42:26.863Z,1010.58
2018-09-13T00:43:26.817Z,1010.58
2018-09-13T00:44:26.764Z,1010.54
2018-09-13T00:45:26.727Z,1010.58
2018-09-13T00:46:26.692Z,1010.51
2018-09-13T00:47:26.615Z,1010.55
2018-09-13T00:48:26.566Z,1010.53
2018-09-13T00:49:26.517Z,1010.52
2018-09-13T00:50:26.472Z,1010.51
2018-09-13T00:51:26.446Z,1010.48
2018-09-13T00:52:26.370Z,1010.46
2018-09-13T00:53:26.335Z,1010.45
2018-09-13T00:54:26.269Z,1010.50
2018-09-13T00:55:26.220Z,1010.51
2018-09-13T00:56:26.213Z,1010.50
2018-09-13T00:57:26.122Z,1010.54
2018-09-13T00:58:26.069Z,1010.55
2018-09-13T00:59:26.023Z,1010.50
2018-09-13T01:00:25.972Z,1010.50
2018-09-13T01:01:25.921Z,1010.51
2018-09-13T01:02:25.894Z,1010.47
2018-09-13T01:03:25.836Z,1010.47
2018-09-13T01:04:25.772Z,1010.46
2018-09-13T01:05:25.721Z,1010.47
2018-09-13T01:06:25.674Z,1010.45
2018-09-13T01:07:25.647Z,1010.44
2018-09-13T01:08:25.575Z,1010.44
2018-09-13T01:09:25.527Z,1010.44
2018-09-13T01:10:25.472Z,1010.42
2018-09-13T01:11:25.429Z,1010.41
2018-09-13T01:12:25.400Z,1010.40
2018-09-13T01:13:25.351Z,1010.39
2018-09-13T01:14:25.298Z,1010.38
2018-09-13T01:15:25.225Z,1010.37
2018-09-13T01:16:25.176Z,1010.37
2018-09-13T01:17:25.153Z,1010.38
2018-09-13T01:18:25.082Z,1010.37
2018-09-13T01:19:25.028Z,1010.35
2018-09-13T01:20:24.977Z,1010.36
2018-09-13T01:21:24.929Z,1010.34
2018-09-13T01:22:24.908Z,1010.35
2018-09-13T01:23:24.841Z,1010.30
2018-09-13T01:24:24.776Z,1010.31
2018-09-13T01:25:24.743Z,1010.28
2018-09-13T01:26:24.677Z,1010.34
2018-09-13T01:27:24.653Z,1010.31
2018-09-13T01:28:24.580Z,1010.29
2018-09-13T01:29:24.534Z,1010.35
2018-09-13T01:30:24.491Z,1010.28
2018-09-13T01:31:24.431Z,1010.23
2018-09-13T01:32:24.407Z,1010.26
2018-09-13T01:33:24.330Z,1010.22
2018-09-13T01:34:24.283Z,1010.21
2018-09-13T01:35:24.230Z,1010.19
2018-09-13T01:36:24.191Z,1010.17
2018-09-13T01:37:24.156Z,1010.16
2018-09-13T01:38:24.084Z,1010.18
2018-09-13T01:39:24.029Z,1010.20
2018-09-13T01:40:23.994Z,1010.22
2018-09-13T01:41:23.931Z,1010.15
2018-09-13T01:42:23.907Z,1010.18
2018-09-13T01:43:23.835Z,1010.19
2018-09-13T01:44:23.783Z,1010.14
2018-09-13T01:45:23.758Z,1010.11
2018-09-13T01:46:23.694Z,1010.13
2018-09-13T01:47:23.655Z,1010.15
2018-09-13T01:48:23.580Z,1010.15
2018-09-13T01:49:23.533Z,1010.14
2018-09-13T01:50:23.491Z,1010.13
2018-09-13T01:51:23.430Z,1010.20
2018-09-13T01:52:23.417Z,1010.18
2018-09-13T01:53:23.335Z,1010.20
2018-09-13T01:54:23.281Z,1010.22
2018-09-13T01:55:23.234Z,1010.20
2018-09-13T01:56:23.184Z,1010.21
2018-09-13T01:57:23.172Z,1010.21
2018-09-13T01:58:23.082Z,1010.20
2018-09-13T01:59:23.042Z,1010.21
2018-09-13T02:00:22.984Z,1010.17
2018-09-13T02:01:22.935Z,1010.19
2018-09-13T02:02:22.920Z,1010.13
2018-09-13T02:03:22.839Z,1010.13
2018-09-13T02:04:22.784Z,1010.11
2018-09-13T02:05:22.733Z,1010.12
2018-09-13T02:06:22.684Z,1010.14
2018-09-13T02:07:23.043Z,1010.18
2018-09-13T02:08:22.583Z,1010.16
2018-09-13T02:09:22.533Z,1010.12
2018-09-13T02:10:22.501Z,1010.14
2018-09-13T02:11:22.435Z,1010.11
2018-09-13T02:12:22.403Z,1010.10
2018-09-13T02:13:22.375Z,1010.04
2018-09-13T02:14:22.289Z,1010.02
2018-09-13T02:15:22.235Z,1010.02
2018-09-13T02:16:22.185Z,1010.00
2018-09-13T02:17:22.138Z,1010.02
2018-09-13T02:18:22.126Z,1009.98
2018-09-13T02:19:22.038Z,1009.97
2018-09-13T02:20:21.984Z,1009.95
2018-09-13T02:21:21.934Z,1009.94
2018-09-13T02:22:21.887Z,1009.92
2018-09-13T02:23:21.859Z,1009.95
2018-09-13T02:24:21.785Z,1009.90
2018-09-13T02:25:21.737Z,1009.86
2018-09-13T02:26:21.687Z,1009.83
2018-09-13T02:27:21.664Z,1009.84
2018-09-13T02:28:21.609Z,1009.85
2018-09-13T02:29:21.539Z,1009.85
2018-09-13T02:30:21.512Z,1009.79
2018-09-13T02:31:21.435Z,1009.81
2018-09-13T02:32:21.390Z,1009.81
2018-09-13T02:33:21.361Z,1009.76
2018-09-13T02:34:21.287Z,1009.74
2018-09-13T02:35:21.236Z,1009.77
2018-09-13T02:36:21.186Z,1009.72
2018-09-13T02:37:21.138Z,1009.71
2018-09-13T02:38:21.114Z,1009.73
2018-09-13T02:39:21.040Z,1009.71
2018-09-13T02:40:20.995Z,1009.73
2018-09-13T02:41:20.940Z,1009.72
2018-09-13T02:42:20.898Z,1009.71
2018-09-13T02:43:20.871Z,1009.69
2018-09-13T02:44:20.789Z,1009.71
2018-09-13T02:45:20.761Z,1009.71
2018-09-13T02:46:20.697Z,1009.68
2018-09-13T02:47:20.645Z,1009.66
2018-09-13T02:48:20.637Z,1009.62
2018-09-13T02:49:20.565Z,1009.59
2018-09-13T02:50:20.490Z,1009.58
2018-09-13T02:51:20.444Z,1009.54
2018-09-13T02:52:20.393Z,1009.55
2018-09-13T02:53:20.368Z,1009.53
2018-09-13T02:54:20.295Z,1009.58
2018-09-13T02:55:20.240Z,1009.58
2018-09-13T02:56:20.197Z,1009.59
2018-09-13T02:57:20.139Z,1009.59
2018-09-13T02:58:20.115Z,1009.58
2018-09-13T02:59:20.044Z,1009.61
2018-09-13T03:00:19.995Z,1009.58
2018-09-13T03:01:19.944Z,1009.62
2018-09-13T03:02:19.892Z,1009.61
2018-09-13T03:03:19.865Z,1009.57
2018-09-13T03:04:19.791Z,1009.53
2018-09-13T03:05:19.743Z,1009.50
2018-09-13T03:06:19.691Z,1009.52
2018-09-13T03:07:19.642Z,1009.55
2018-09-13T03:08:19.700Z,1009.54
2018-09-13T03:09:19.548Z,1009.57
2018-09-13T03:10:19.495Z,1009.57
2018-09-13T03:11:19.442Z,1009.61
2018-09-13T03:12:19.392Z,1009.61
2018-09-13T03:13:19.370Z,1009.57
2018-09-13T03:14:19.297Z,1009.61
2018-09-13T03:15:19.248Z,1009.66
2018-09-13T03:16:19.196Z,1009.67
2018-09-13T03:17:19.147Z,1009.66
2018-09-13T03:18:19.127Z,1009.67
2018-09-13T03:19:19.054Z,1009.69
2018-09-13T03:20:19.002Z,1009.65
2018-09-13T03:21:18.951Z,1009.62
2018-09-13T03:22:18.897Z,1009.60
2018-09-13T03:23:18.857Z,1009.62
2018-09-13T03:24:18.843Z,1009.58
2018-09-13T03:25:18.752Z,1009.60
2018-09-13T03:26:18.698Z,1009.62
2018-09-13T03:27:18.652Z,1009.59
2018-09-13T03:28:18.597Z,1009.57
2018-09-13T03:29:18.602Z,1009.50
2018-09-13T03:30:18.499Z,1009.52
2018-09-13T03:31:18.453Z,1009.56
2018-09-13T03:32:18.400Z,1009.53
2018-09-13T03:33:18.351Z,1009.53
2018-09-13T03:34:18.332Z,1009.57
2018-09-13T03:35:18.259Z,1009.55
2018-09-13T03:36:18.205Z,1009.58
2018-09-13T03:37:18.147Z,1009.56
2018-09-13T03:38:18.102Z,1009.56
2018-09-13T03:39:18.072Z,1009.54
2018-09-13T03:40:18.002Z,1009.49
2018-09-13T03:41:17.948Z,1009.47
2018-09-13T03:42:17.922Z,1009.47
2018-09-13T03:43:17.867Z,1009.49
2018-09-13T03:44:17.825Z,1009.48
2018-09-13T03:45:17.750Z,1009.48
2018-09-13T03:46:17.702Z,1009.49
2018-09-13T03:47:17.648Z,1009.45
2018-09-13T03:48:17.615Z,1009.48
2018-09-13T03:49:17.588Z,1009.51
2018-09-13T03:50:17.505Z,1009.53
2018-09-13T03:51:17.458Z,1009.52
2018-09-13T03:52:17.406Z,1009.50
2018-09-13T03:53:17.354Z,1009.55
2018-09-13T03:54:17.329Z,1009.58
2018-09-13T03:55:17.250Z,1009.57
2018-09-13T03:56:17.207Z,1009.58
2018-09-13T03:57:17.156Z,1009.62
2018-09-13T03:58:17.106Z,1009.63
2018-09-13T03:59:17.077Z,1009.65
2018-09-13T04:00:17.006Z,1009.68
2018-09-13T04:01:16.968Z,1009.61
2018-09-13T04:02:16.910Z,1009.60
2018-09-13T04:03:16.886Z,1009.60
2018-09-13T04:04:16.842Z,1009.58
2018-09-13T04:05:16.758Z,1009.61
2018-09-13T04:06:16.706Z,1009.62
2018-09-13T04:07:16.660Z,1009.61
2018-09-13T04:08:16.605Z,1009.64
2018-09-13T04:09:16.636Z,1009.63
2018-09-13T04:10:16.504Z,1009.61
2018-09-13T04:11:16.455Z,1009.65
2018-09-13T04:12:16.412Z,1009.61
2018-09-13T04:13:16.377Z,1009.64
2018-09-13T04:14:16.353Z,1009.64
2018-09-13T04:15:16.265Z,1009.65
2018-09-13T04:16:16.235Z,1009.65
2018-09-13T04:17:16.156Z,1009.64
2018-09-13T04:18:16.116Z,1009.68
2018-09-13T04:19:16.103Z,1009.67
2018-09-13T04:20:16.009Z,1009.63
2018-09-13T04:21:15.968Z,1009.62
2018-09-13T04:22:15.943Z,1009.63
2018-09-13T04:23:15.877Z,1009.57
2018-09-13T04:24:15.810Z,1009.57
2018-09-13T04:25:15.794Z,1009.55
2018-09-13T04:26:15.726Z,1009.55
2018-09-13T04:27:15.672Z,1009.55
2018-09-13T04:28:15.612Z,1009.53
2018-09-13T04:29:15.566Z,1009.55
2018-09-13T04:30:15.544Z,1009.57
2018-09-13T04:31:15.482Z,1009.50
2018-09-13T04:32:15.415Z,1009.48
2018-09-13T04:33:15.367Z,1009.50
2018-09-13T04:34:15.316Z,1009.45
2018-09-13T04:35:15.292Z,1009.46
2018-09-13T04:36:15.244Z,1009.44
2018-09-13T04:37:15.177Z,1009.40
2018-09-13T04:38:15.121Z,1009.48
2018-09-13T04:39:15.070Z,1009.48
2018-09-13T04:40:15.050Z,1009.48
2018-09-13T04:41:14.984Z,1009.49
2018-09-13T04:42:14.930Z,1009.50
2018-09-13T04:43:14.875Z,1009.51
2018-09-13T04:44:14.822Z,1009.48
2018-09-13T04:45:14.790Z,1009.53
2018-09-13T04:46:14.719Z,1009.51
2018-09-13T04:47:14.666Z,1009.53
2018-09-13T04:48:14.616Z,1009.54
2018-09-13T04:49:14.589Z,1009.53
2018-09-13T04:50:14.541Z,1009.50
2018-09-13T04:51:14.482Z,1009.52
2018-09-13T04:52:14.422Z,1009.49
2018-09-13T04:53:14.370Z,1009.50
2018-09-13T04:54:14.321Z,1009.50
2018-09-13T04:55:14.293Z,1009.44
2018-09-13T04:56:14.223Z,1009.48
2018-09-13T04:57:14.170Z,1009.45
2018-09-13T04:58:14.536Z,1009.44
2018-09-13T04:59:14.073Z,1009.47
2018-09-13T05:00:14.089Z,1009.41
2018-09-13T05:01:13.979Z,1009.44
2018-09-13T05:02:13.927Z,1009.39
2018-09-13T05:03:13.873Z,1009.38
2018-09-13T05:04:13.817Z,1009.37
2018-09-13T05:05:13.794Z,1009.39
2018-09-13T05:06:13.724Z,1009.31
2018-09-13T05:07:13.666Z,1009.35
2018-09-13T05:08:13.620Z,1009.36
2018-09-13T05:09:13.574Z,1009.40
2018-09-13T05:10:13.553Z,1009.39
2018-09-13T05:11:13.473Z,1009.38
2018-09-13T05:12:13.439Z,1009.36
2018-09-13T05:13:13.375Z,1009.44
2018-09-13T05:14:13.320Z,1009.39
2018-09-13T05:15:13.295Z,1009.36
2018-09-13T05:16:13.222Z,1009.45
2018-09-13T05:17:13.187Z,1009.42
2018-09-13T05:18:13.126Z,1009.41
2018-09-13T05:19:13.067Z,1009.41
2018-09-13T05:20:13.042Z,1009.39
2018-09-13T05:21:12.979Z,1009.43
2018-09-13T05:22:12.924Z,1009.41
2018-09-13T05:23:12.895Z,1009.39
2018-09-13T05:24:12.838Z,1009.43
2018-09-13T05:25:12.796Z,1009.44
2018-09-13T05:26:12.727Z,1009.46
2018-09-13T05:27:12.665Z,1009.45
2018-09-13T05:28:12.616Z,1009.47
2018-09-13T05:29:12.579Z,1009.42
2018-09-13T05:30:12.544Z,1009.41
2018-09-13T05:31:12.467Z,1009.46
2018-09-13T05:32:12.420Z,1009.47
2018-09-13T05:33:12.377Z,1009.47
2018-09-13T05:34:12.324Z,1009.50
2018-09-13T05:35:12.297Z,1009.48
2018-09-13T05:36:12.227Z,1009.51
2018-09-13T05:37:12.183Z,1009.53
2018-09-13T05:38:12.117Z,1009.58
2018-09-13T05:39:12.068Z,1009.51
2018-09-13T05:40:12.065Z,1009.55
2018-09-13T05:41:11.965Z,1009.55
2018-09-13T05:42:11.917Z,1009.50
2018-09-13T05:43:11.869Z,1009.52
2018-09-13T05:44:11.823Z,1009.55
2018-09-13T05:45:11.766Z,1009.47
2018-09-13T05:46:11.748Z,1009.53
2018-09-13T05:47:11.664Z,1009.46
2018-09-13T05:48:11.865Z,1009.46
2018-09-13T05:49:11.575Z,1009.51
2018-09-13T05:50:11.514Z,1009.50
2018-09-13T05:51:11.571Z,1009.49
2018-09-13T05:52:11.417Z,1009.49
2018-09-13T05:53:11.367Z,1009.51
2018-09-13T05:54:11.320Z,1009.47
2018-09-13T05:55:11.269Z,1009.52
2018-09-13T05:56:11.247Z,1009.48
2018-09-13T05:57:11.165Z,1009.54
2018-09-13T05:58:11.174Z,1009.52
2018-09-13T05:59:11.078Z,1009.48
2018-09-13T06:00:11.043Z,1009.55
2018-09-13T06:01:10.988Z,1009.58
2018-09-13T06:02:10.921Z,1009.59
2018-09-13T06:03:10.894Z,1009.52
2018-09-13T06:04:10.818Z,1009.59
2018-09-13T06:05:10.776Z,1009.63
2018-09-13T06:06:10.736Z,1009.62
2018-09-13T06:07:10.664Z,1009.60
2018-09-13T06:08:10.619Z,1009.64
2018-09-13T06:09:10.576Z,1009.64
2018-09-13T06:10:10.517Z,1009.62
2018-09-13T06:11:10.527Z,1009.62
2018-09-13T06:12:10.420Z,1009.70
2018-09-13T06:13:10.368Z,1009.62
2018-09-13T06:14:10.316Z,1009.63
2018-09-13T06:15:10.266Z,1009.68
2018-09-13T06:16:10.253Z,1009.73
2018-09-13T06:17:10.168Z,1009.72
2018-09-13T06:18:10.115Z,1009.75
2018-09-13T06:19:10.065Z,1009.70
2018-09-13T06:20:10.012Z,1009.73
2018-09-13T06:21:09.983Z,1009.74
2018-09-13T06:22:09.914Z,1009.75
2018-09-13T06:23:09.861Z,1009.73
2018-09-13T06:24:09.813Z,1009.73
2018-09-13T06:25:09.759Z,1009.71
2018-09-13T06:26:09.736Z,1009.80
2018-09-13T06:27:09.664Z,1009.75
2018-09-13T06:28:09.614Z,1009.72
2018-09-13T06:29:09.563Z,1009.74
2018-09-13T06:30:09.509Z,1009.75
2018-09-13T06:31:09.484Z,1009.78
2018-09-13T06:32:09.410Z,1009.74
2018-09-13T06:33:09.360Z,1009.71
2018-09-13T06:34:09.316Z,1009.76
2018-09-13T06:35:09.259Z,1009.77
2018-09-13T06:36:09.236Z,1009.74
2018-09-13T06:37:09.158Z,1009.73
2018-09-13T06:38:09.113Z,1009.70
2018-09-13T06:39:09.064Z,1009.72
2018-09-13T06:40:09.015Z,1009.73
2018-09-13T06:41:08.983Z,1009.73
2018-09-13T06:42:08.917Z,1009.73
2018-09-13T06:43:08.858Z,1009.76
2018-09-13T06:44:08.813Z,1009.82
2018-09-13T06:45:08.759Z,1009.80
2018-09-13T06:46:08.737Z,1009.84
2018-09-13T06:47:08.661Z,1009.77
2018-09-13T06:48:08.607Z,1009.76
2018-09-13T06:49:08.560Z,1009.77
2018-09-13T06:50:08.508Z,1009.76
2018-09-13T06:51:08.483Z,1009.73
2018-09-13T06:52:08.405Z,1009.77
2018-09-13T06:53:08.353Z,1009.77
2018-09-13T06:54:08.366Z,1009.73
2018-09-13T06:55:08.251Z,1009.73
2018-09-13T06:56:08.238Z,1009.68
2018-09-13T06:57:08.153Z,1009.71
2018-09-13T06:58:08.103Z,1009.70
2018-09-13T06:59:08.051Z,1009.69
2018-09-13T07:00:08.001Z,1009.68
2018-09-13T07:01:07.954Z,1009.62
2018-09-13T07:02:07.922Z,1009.64
2018-09-13T07:03:07.853Z,1009.66
2018-09-13T07:04:07.798Z,1009.66
2018-09-13T07:05:07.751Z,1009.63
2018-09-13T07:06:07.695Z,1009.62
2018-09-13T07:07:07.671Z,1009.66
2018-09-13T07:08:07.597Z,1009.66
2018-09-13T07:09:07.591Z,1009.69
2018-09-13T07:10:07.493Z,1009.70
2018-09-13T07:11:07.448Z,1009.66
2018-09-13T07:12:07.416Z,1009.70
2018-09-13T07:13:07.341Z,1009.72
2018-09-13T07:14:07.295Z,1009.72
2018-09-13T07:15:07.241Z,1009.72
2018-09-13T07:16:07.190Z,1009.69
2018-09-13T07:17:07.164Z,1009.69
2018-09-13T07:18:07.091Z,1009.73
2018-09-13T07:19:07.035Z,1009.71
2018-09-13T07:20:06.987Z,1009.74
2018-09-13T07:21:06.942Z,1009.67
2018-09-13T07:22:06.909Z,1009.74
2018-09-13T07:23:06.839Z,1009.70
2018-09-13T07:24:06.785Z,1009.65
2018-09-13T07:25:06.738Z,1009.72
2018-09-13T07:26:06.686Z,1009.76
2018-09-13T07:27:06.655Z,1009.73
2018-09-13T07:28:06.584Z,1009.73
2018-09-13T07:29:06.540Z,1009.75
2018-09-13T07:30:06.488Z,1009.76
2018-09-13T07:31:06.431Z,1009.73
2018-09-13T07:32:06.407Z,1009.73
2018-09-13T07:33:06.331Z,1009.74
2018-09-13T07:34:06.282Z,1009.77
2018-09-13T07:35:06.231Z,1009.76
2018-09-13T07:36:06.180Z,1009.72
2018-09-13T07:37:06.156Z,1009.71
2018-09-13T07:38:06.083Z,1009.74
2018-09-13T07:39:06.030Z,1009.73
2018-09-13T07:40:05.975Z,1009.69
2018-09-13T07:41:05.926Z,1009.69
2018-09-13T07:42:05.898Z,1009.72
2018-09-13T07:43:05.837Z,1009.70
2018-09-13T07:44:05.780Z,1009.71
2018-09-13T07:45:05.728Z,1009.71
2018-09-13T07:46:05.679Z,1009.77
2018-09-13T07:47:05.649Z,1009.73
2018-09-13T07:48:05.578Z,1009.73
2018-09-13T07:49:05.562Z,1009.75
2018-09-13T07:50:05.475Z,1009.77
2018-09-13T07:51:05.428Z,1009.81
2018-09-13T07:52:05.417Z,1009.80
2018-09-13T07:53:05.327Z,1009.83
2018-09-13T07:54:05.277Z,1009.81
2018-09-13T07:55:05.227Z,1009.78
2018-09-13T07:56:05.175Z,1009.87
2018-09-13T07:57:05.127Z,1009.78
2018-09-13T07:58:05.102Z,1009.75
2018-09-13T07:59:05.025Z,1009.81
2018-09-13T08:00:04.975Z,1009.82
2018-09-13T08:01:04.928Z,1009.82
2018-09-13T08:02:04.882Z,1009.79
2018-09-13T08:03:04.854Z,1009.77
2018-09-13T08:04:04.775Z,1009.78
2018-09-13T08:05:04.755Z,1009.80
2018-09-13T08:06:04.674Z,1009.85
2018-09-13T08:07:04.628Z,1009.84
2018-09-13T08:08:04.596Z,1009.89
2018-09-13T08:09:04.534Z,1009.81
2018-09-13T08:10:04.470Z,1009.85
2018-09-13T08:11:04.424Z,1009.87
2018-09-13T08:12:04.487Z,1009.85
2018-09-13T08:13:04.346Z,1009.88
2018-09-13T08:14:04.270Z,1009.83
2018-09-13T08:15:04.230Z,1009.90
2018-09-13T08:16:04.180Z,1009.89
2018-09-13T08:17:04.125Z,1009.91
2018-09-13T08:18:04.094Z,1009.88
2018-09-13T08:19:04.026Z,1009.94
2018-09-13T08:20:03.980Z,1009.90
2018-09-13T08:21:03.924Z,1009.93
2018-09-13T08:22:03.965Z,1009.93
2018-09-13T08:23:03.847Z,1009.94
2018-09-13T08:24:03.774Z,1009.97
2018-09-13T08:25:03.726Z,1009.96
2018-09-13T08:26:03.676Z,1009.99
2018-09-13T08:27:03.656Z,1010.01
2018-09-13T08:28:03.598Z,1009.95
2018-09-13T08:29:03.526Z,1009.96
2018-09-13T08:30:03.480Z,1009.93
2018-09-13T08:31:03.434Z,1009.98
2018-09-13T08:32:03.373Z,1010.02
2018-09-13T08:33:03.351Z,1010.03
2018-09-13T08:34:03.276Z,1009.97
2018-09-13T08:35:03.244Z,1010.01
2018-09-13T08:36:03.177Z,1010.01
2018-09-13T08:37:03.174Z,1010.04
2018-09-13T08:38:03.103Z,1010.00
2018-09-13T08:39:03.032Z,1010.07
2018-09-13T08:40:02.987Z,1010.07
2018-09-13T08:41:02.926Z,1010.05
2018-09-13T08:42:02.880Z,1010.06
2018-09-13T08:43:02.911Z,1010.05
2018-09-13T08:44:02.782Z,1010.01
2018-09-13T08:45:02.728Z,1010.05
2018-09-13T08:46:02.683Z,1010.04
2018-09-13T08:47:02.635Z,1010.08
2018-09-13T08:48:02.608Z,1010.04
2018-09-13T08:49:02.531Z,1010.10
2018-09-13T08:50:02.483Z,1010.12
2018-09-13T08:51:02.436Z,1010.10
2018-09-13T08:52:02.483Z,1010.07
2018-09-13T08:53:02.382Z,1010.13
2018-09-13T08:54:02.295Z,1010.12
2018-09-13T08:55:02.280Z,1010.13
2018-09-13T08:56:02.203Z,1010.15
2018-09-13T08:57:02.153Z,1010.27
2018-09-13T08:58:02.093Z,1010.22
2018-09-13T08:59:02.086Z,1010.20
2018-09-13T09:00:01.994Z,1010.20
2018-09-13T09:01:01.950Z,1010.27
2018-09-13T09:02:01.891Z,1010.21
2018-09-13T09:03:01.845Z,1010.21
2018-09-13T09:04:01.828Z,1010.21
2018-09-13T09:05:01.760Z,1010.22
2018-09-13T09:06:01.714Z,1010.22
2018-09-13T09:07:01.650Z,1010.19
2018-09-13T09:08:01.606Z,1010.21
2018-09-13T09:09:01.592Z,1010.22
2018-09-13T09:10:01.501Z,1010.18
2018-09-13T09:11:01.470Z,1010.17
2018-09-13T09:12:01.518Z,1010.18
2018-09-13T09:13:01.353Z,1010.22
2018-09-13T09:14:01.333Z,1010.24
2018-09-13T09:15:01.269Z,1010.19
2018-09-13T09:16:01.240Z,1010.07
2018-09-13T09:17:01.149Z,1010.13
2018-09-13T09:18:01.118Z,1010.11
2018-09-13T09:19:01.083Z,1010.12
2018-09-13T09:20:01.004Z,1010.13
2018-09-13T09:21:00.958Z,1010.08
2018-09-13T09:22:00.907Z,1010.05
2018-09-13T09:23:00.862Z,1010.04
2018-09-13T09:24:00.906Z,1010.04
2018-09-13T09:25:00.757Z,1009.95
2018-09-13T09:26:00.718Z,1009.99
2018-09-13T09:27:00.659Z,1009.98
2018-09-13T09:28:00.619Z,1009.91
2018-09-13T09:29:00.667Z,1009.93
2018-09-13T09:30:00.513Z,1009.94
2018-09-13T09:31:00.475Z,1009.93
2018-09-13T09:32:00.411Z,1009.95
2018-09-13T09:33:00.378Z,1009.86
2018-09-13T09:34:00.351Z,1009.88
2018-09-13T09:35:00.294Z,1009.86
2018-09-13T09:36:00.219Z,1009.91
2018-09-13T09:37:00.173Z,1009.91
2018-09-13T09:38:00.131Z,1009.95
2018-09-13T09:39:00.117Z,1009.90
2018-09-13T09:40:00.050Z,1009.96
2018-09-13T09:40:59.978Z,1009.98
2018-09-13T09:41:59.939Z,1009.96
2018-09-13T09:42:59.873Z,1010.08
2018-09-13T09:43:59.850Z,1010.02
2018-09-13T09:44:59.778Z,1010.06
2018-09-13T09:45:59.728Z,1010.06
2018-09-13T09:46:59.680Z,1010.09
2018-09-13T09:47:59.696Z,1010.13
2018-09-13T09:48:59.619Z,1010.12
2018-09-13T09:49:59.546Z,1010.11
2018-09-13T09:50:59.484Z,1010.14
2018-09-13T09:51:59.511Z,1010.16
2018-09-13T09:52:59.397Z,1010.21
2018-09-13T09:53:59.416Z,1010.22
2018-09-13T09:54:59.294Z,1010.26
2018-09-13T09:55:59.302Z,1010.28
2018-09-13T09:56:59.189Z,1010.23
2018-09-13T09:57:59.162Z,1010.27
2018-09-13T09:58:59.131Z,1010.25
2018-09-13T09:59:59.061Z,1010.27
2018-09-13T10:00:59.005Z,1010.28
2018-09-13T10:01:58.962Z,1010.25
2018-09-13T10:02:58.913Z,1010.28
2018-09-13T10:03:58.918Z,1010.31
2018-09-13T10:04:58.803Z,1010.32
2018-09-13T10:05:58.756Z,1010.31
2018-09-13T10:06:58.706Z,1010.33
2018-09-13T10:07:58.659Z,1010.32
2018-09-13T10:08:58.681Z,1010.30
2018-09-13T10:09:58.577Z,1010.28
2018-09-13T10:10:58.514Z,1010.33
2018-09-13T10:11:58.456Z,1010.30
2018-09-13T10:12:58.421Z,1010.33
2018-09-13T10:13:58.385Z,1010.34
2018-09-13T10:14:58.327Z,1010.33
2018-09-13T10:15:58.257Z,1010.34
2018-09-13T10:16:58.206Z,1010.37
2018-09-13T10:17:58.158Z,1010.31
2018-09-13T10:18:58.131Z,1010.28
2018-09-13T10:19:58.059Z,1010.30
2018-09-13T10:20:58.011Z,1010.29
2018-09-13T10:21:57.962Z,1010.23
2018-09-13T10:22:57.985Z,1010.24
2018-09-13T10:23:57.900Z,1010.20
2018-09-13T10:24:57.814Z,1010.23
2018-09-13T10:25:57.766Z,1010.20
2018-09-13T10:26:57.816Z,1010.17
2018-09-13T10:27:57.674Z,1010.13
2018-09-13T10:28:57.644Z,1010.12
2018-09-13T10:29:57.568Z,1010.07
2018-09-13T10:30:57.517Z,1010.03
2018-09-13T10:31:57.468Z,1010.00
2018-09-13T10:32:57.421Z,1009.99
2018-09-13T10:33:57.394Z,1010.03
2018-09-13T10:34:57.323Z,1010.04
2018-09-13T10:35:57.273Z,1010.07
2018-09-13T10:36:57.230Z,1010.08
2018-09-13T10:37:57.182Z,1010.09
2018-09-13T10:38:57.164Z,1010.11
2018-09-13T10:39:57.076Z,1010.13
2018-09-13T10:40:57.052Z,1010.10
2018-09-13T10:41:56.980Z,1010.11
2018-09-13T10:42:56.938Z,1010.14
2018-09-13T10:43:56.885Z,1010.09
2018-09-13T10:44:56.860Z,1010.14
2018-09-13T10:45:56.786Z,1010.13
2018-09-13T10:46:56.740Z,1010.18
2018-09-13T10:47:56.920Z,1010.13
2018-09-13T10:48:56.640Z,1010.11
2018-09-13T10:49:56.626Z,1010.17
2018-09-13T10:50:56.557Z,1010.14
2018-09-13T10:51:56.515Z,1010.17
2018-09-13T10:52:56.442Z,1010.14
2018-09-13T10:53:56.390Z,1010.12
2018-09-13T10:54:56.373Z,1010.10
2018-09-13T10:55:56.340Z,1010.18
2018-09-13T10:56:56.251Z,1010.13
2018-09-13T10:57:56.206Z,1010.15
2018-09-13T10:58:56.166Z,1010.19
2018-09-13T10:59:56.137Z,1010.16
2018-09-13T11:00:56.059Z,1010.18
2018-09-13T11:01:56.020Z,1010.11
2018-09-13T11:02:55.966Z,1010.10
2018-09-13T11:03:55.953Z,1010.11
2018-09-13T11:04:55.882Z,1010.11
2018-09-13T11:05:55.818Z,1010.13
2018-09-13T11:06:55.785Z,1010.11
2018-09-13T11:07:55.724Z,1010.09
2018-09-13T11:08:55.675Z,1010.07
2018-09-13T11:09:55.648Z,1010.05
2018-09-13T11:10:55.728Z,1010.10
2018-09-13T11:11:55.515Z,1010.13
2018-09-13T11:12:55.479Z,1010.10
2018-09-13T11:13:55.430Z,1010.13
2018-09-13T11:14:55.401Z,1010.12
2018-09-13T11:15:55.330Z,1010.12
2018-09-13T11:16:55.275Z,1010.13
2018-09-13T11:17:55.225Z,1010.13
2018-09-13T11:18:55.178Z,1010.14
2018-09-13T11:19:55.152Z,1010.11
2018-09-13T11:20:55.079Z,1010.12
2018-09-13T11:21:55.026Z,1010.14
2018-09-13T11:22:54.983Z,1010.09
2018-09-13T11:23:54.938Z,1010.16
2018-09-13T11:24:54.924Z,1010.13
2018-09-13T11:25:54.846Z,1010.13
2018-09-13T11:26:54.791Z,1010.07
2018-09-13T11:27:54.756Z,1010.09
2018-09-13T11:28:54.700Z,1010.12
2018-09-13T11:29:54.670Z,1010.13
2018-09-13T11:30:54.591Z,1010.14
2018-09-13T11:31:54.546Z,1010.13
2018-09-13T11:32:54.494Z,1010.17
2018-09-13T11:33:54.451Z,1010.19
2018-09-13T11:34:54.451Z,1010.17
2018-09-13T11:35:54.349Z,1010.15
2018-09-13T11:36:54.311Z,1010.14
2018-09-13T11:37:54.249Z,1010.15
2018-09-13T11:38:54.201Z,1010.12
2018-09-13T11:39:54.261Z,1010.13
2018-09-13T11:40:54.444Z,1010.10
2018-09-13T11:41:54.067Z,1010.17
2018-09-13T11:42:54.011Z,1010.12
2018-09-13T11:43:53.965Z,1010.09
2018-09-13T11:44:53.960Z,1010.10
2018-09-13T11:45:53.867Z,1010.07
2018-09-13T11:46:53.817Z,1010.10
2018-09-13T11:47:53.770Z,1010.07
2018-09-13T11:48:53.719Z,1010.05
2018-09-13T11:49:53.721Z,1010.09
2018-09-13T11:50:53.643Z,1010.09
2018-09-13T11:51:53.573Z,1010.09
2018-09-13T11:52:53.538Z,1010.07
2018-09-13T11:53:53.521Z,1010.07
2018-09-13T11:54:53.464Z,1010.09
2018-09-13T11:55:53.376Z,1010.04
2018-09-13T11:56:53.335Z,1010.09
2018-09-13T11:57:53.300Z,1010.04
2018-09-13T11:58:53.237Z,1010.05
2018-09-13T11:59:53.249Z,1010.03
2018-09-13T12:00:53.143Z,1010.04
2018-09-13T12:01:53.093Z,1010.01
2018-09-13T12:02:53.034Z,1009.99
2018-09-13T12:03:53.003Z,1009.96
2018-09-13T12:04:52.943Z,1009.99